Overview Statistics Trail Chart Weather Telemetry Raw packets
 

This is the latest recevied weather packets stored in our database for station/object HS5XHC-1. If no packets are shown the sender has not sent any weather packets the latest 10 day(s).

<< 47 48 49 50 51 52 53 >>
Time Temp. Humidity Pressure Rain* Wind** Luminosity Snow
1777129678 28.33° C 51% 969 hPa - - 0 W/m² -
1777129053 27.78° C 54% 969 hPa - - 0 W/m² -
1777128429 27.78° C 56% 969 hPa - - 0 W/m² -
1777127805 27.22° C 56% 969 hPa - - 0 W/m² -
1777127181 28.33° C 53% 969 hPa - - 0 W/m² -
1777126557 29.44° C 51% 969 hPa - - 0 W/m² -
1777125932 30° C 49% 969 hPa - - 0 W/m² -
1777125308 28.89° C 52% 969 hPa - - 0 W/m² -
1777124684 29.44° C 51% 969 hPa - - 0 W/m² -
1777124060 30° C 49% 969 hPa - - 0 W/m² -
1777123436 30° C 49% 969 hPa - - 0 W/m² -
1777122812 30° C 49% 969 hPa - - 0 W/m² -
1777122188 29.44° C 49% 969 hPa - - 0 W/m² -
1777121564 30° C 48% 969 hPa - - 0 W/m² -
1777120940 30.56° C 46% 968 hPa - - 0 W/m² -
1777120317 31.11° C 45% 968 hPa - - 0 W/m² -
1777119693 31.11° C 46% 968 hPa - - 0 W/m² -
1777119069 31.11° C 46% 968 hPa - - 0 W/m² -
1777118445 31.11° C 46% 968 hPa - - 0 W/m² -
1777117821 31.11° C 46% 968 hPa - - 0 W/m² -
1777117197 31.11° C 47% 968 hPa - - 0 W/m² -
1777116573 31.11° C 46% 968 hPa - - 0 W/m² -
1777115948 31.11° C 46% 968 hPa - - 0 W/m² -
1777115324 31.11° C 45% 967 hPa - - 0 W/m² -
1777114700 31.67° C 44% 967 hPa - - 0 W/m² -

* Rain since midnight (hover to see other rain measurements)
** Current wind speed in m/s (hover to see current wind gust speed)